createdAt,value
2023-09-28T00:04:45.570Z,51.35
2023-09-28T00:09:48.814Z,36.13
2023-09-28T00:14:53.948Z,32.45
2023-09-28T00:19:56.555Z,26.85
2023-09-28T00:24:58.925Z,44.55
2023-09-28T00:30:00.930Z,37.42
2023-09-28T00:40:34.695Z,41.53
2023-09-28T00:45:38.433Z,27.58
2023-09-28T00:50:41.357Z,35.53
2023-09-28T00:55:44.604Z,47.15
2023-09-28T01:00:48.202Z,30.50
2023-09-28T01:05:50.533Z,43.33
2023-09-28T01:10:56.139Z,49.67
2023-09-28T01:16:00.312Z,35.22
2023-09-28T01:21:05.113Z,36.63
2023-09-28T01:26:08.565Z,39.05
2023-09-28T01:31:11.600Z,45.55
2023-09-28T01:36:15.235Z,38.22
2023-09-28T01:41:22.847Z,49.80
2023-09-28T01:46:26.435Z,49.78
2023-09-28T01:51:29.017Z,52.97
2023-09-28T01:56:31.480Z,47.10
2023-09-28T02:01:33.471Z,44.53
2023-09-28T02:06:35.918Z,44.55
2023-09-28T02:11:44.854Z,41.67
2023-09-28T02:16:46.817Z,44.13
2023-09-28T02:21:49.970Z,53.90
2023-09-28T02:26:56.303Z,38.80
2023-09-28T02:31:59.313Z,38.63
2023-09-28T02:37:06.011Z,39.72
2023-09-28T02:42:09.227Z,43.65
2023-09-28T02:47:13.160Z,47.03
2023-09-28T02:52:15.785Z,46.30
2023-09-28T02:57:19.628Z,37.67
2023-09-28T03:02:22.278Z,47.90
2023-09-28T03:07:24.642Z,49.85
2023-09-28T03:12:28.999Z,45.08
2023-09-28T03:17:33.651Z,44.70
2023-09-28T03:22:36.257Z,27.50
2023-09-28T03:27:38.326Z,37.53
2023-09-28T03:32:40.735Z,36.10
2023-09-28T03:37:45.992Z,46.20
2023-09-28T03:42:51.883Z,38.65
2023-09-28T03:47:55.029Z,31.85
2023-09-28T03:52:57.326Z,46.40
2023-09-28T03:58:03.214Z,38.88
2023-09-28T04:03:05.764Z,34.33
2023-09-28T04:08:08.517Z,36.00
2023-09-28T04:13:11.786Z,34.63
2023-09-28T04:18:13.707Z,36.03
2023-09-28T04:23:18.108Z,39.92
2023-09-28T04:28:26.648Z,42.08
2023-09-28T04:33:28.905Z,33.97
2023-09-28T04:38:31.098Z,37.17
2023-09-28T04:43:33.520Z,32.00
2023-09-28T04:48:39.233Z,30.98
2023-09-28T04:53:41.374Z,27.77
2023-09-28T05:04:01.540Z,29.23
2023-09-28T05:09:05.519Z,34.92
2023-09-28T05:14:10.199Z,36.50
2023-09-28T05:19:12.205Z,35.38
2023-09-28T05:24:17.392Z,24.88
2023-09-28T05:29:19.751Z,32.35
2023-09-28T05:34:22.141Z,34.10
2023-09-28T05:39:24.924Z,33.58
2023-09-28T05:44:28.103Z,33.00
2023-09-28T05:49:34.095Z,42.75
2023-09-28T05:54:35.961Z,39.72
2023-09-28T05:59:38.284Z,43.83
2023-09-28T06:04:41.473Z,45.20
2023-09-28T06:09:46.977Z,32.40
2023-09-28T06:14:54.216Z,40.75
2023-09-28T06:19:58.498Z,34.60
2023-09-28T06:25:04.502Z,27.10
2023-09-28T06:30:29.556Z,34.50
2023-09-28T06:35:39.507Z,42.80
2023-09-28T06:40:43.678Z,24.00
2023-09-28T06:45:45.574Z,33.03
2023-09-28T06:50:48.232Z,43.60
2023-09-28T06:56:03.853Z,37.78
2023-09-28T07:01:15.639Z,35.22
2023-09-28T07:06:22.795Z,34.70
2023-09-28T07:11:31.070Z,38.60
2023-09-28T07:16:40.579Z,28.95
2023-09-28T07:21:46.239Z,29.08
2023-09-28T07:26:48.641Z,28.05
2023-09-28T07:31:54.040Z,34.85
2023-09-28T07:36:56.080Z,32.03
2023-09-28T07:41:59.976Z,34.05
2023-09-28T07:47:02.125Z,29.27
2023-09-28T07:52:04.497Z,31.45
2023-09-28T07:57:08.560Z,36.92
2023-09-28T08:02:13.320Z,38.33
2023-09-28T08:07:15.273Z,32.75
2023-09-28T08:12:17.148Z,31.45
2023-09-28T08:17:19.534Z,41.00
2023-09-28T08:22:24.116Z,35.33
2023-09-28T08:27:26.790Z,34.28
2023-09-28T08:32:28.991Z,24.35
2023-09-28T08:37:33.573Z,26.52
2023-09-28T08:42:39.468Z,28.52
2023-09-28T08:47:50.005Z,24.00
2023-09-28T08:52:54.912Z,34.28
2023-09-28T08:57:56.754Z,31.27
2023-09-28T09:03:00.491Z,23.67
2023-09-28T09:08:03.619Z,35.15
2023-09-28T09:13:05.485Z,33.13
2023-09-28T09:18:07.791Z,26.92
2023-09-28T09:23:13.635Z,31.52
2023-09-28T09:28:34.555Z,24.50
2023-09-28T09:33:37.277Z,31.45
2023-09-28T09:38:39.260Z,23.65
2023-09-28T09:43:45.229Z,24.92
2023-09-28T09:48:47.501Z,27.70
2023-09-28T09:53:49.674Z,31.75
2023-09-28T09:58:53.802Z,31.10
2023-09-28T10:04:00.315Z,29.83
2023-09-28T10:09:05.869Z,23.35
2023-09-28T10:14:09.589Z,40.42
2023-09-28T10:19:18.794Z,33.45
2023-09-28T10:24:36.542Z,27.48
2023-09-28T10:29:40.916Z,38.20
2023-09-28T10:34:44.624Z,31.23
2023-09-28T10:39:54.017Z,37.38
2023-09-28T10:44:57.654Z,29.38
2023-09-28T10:50:08.658Z,24.33
2023-09-28T10:55:12.816Z,31.65
2023-09-28T11:00:15.862Z,25.45
2023-09-28T11:05:21.786Z,25.90
2023-09-28T11:10:26.273Z,31.05
2023-09-28T11:15:30.795Z,17.98
2023-09-28T11:20:33.255Z,20.10
2023-09-28T11:25:45.513Z,13.18
2023-09-28T11:31:04.174Z,20.02
2023-09-28T11:36:12.714Z,14.02
2023-09-28T11:41:15.519Z,13.43
2023-09-28T11:46:29.342Z,12.57
2023-09-28T11:51:36.771Z,10.32
2023-09-28T11:56:41.422Z,10.07
2023-09-28T12:01:59.236Z,8.55
2023-09-28T12:07:03.540Z,5.82
2023-09-28T12:12:05.725Z,10.23
2023-09-28T12:17:12.725Z,3.83
2023-09-28T12:22:17.174Z,4.57
2023-09-28T12:27:34.089Z,4.82
2023-09-28T12:32:36.496Z,5.03
2023-09-28T12:37:43.228Z,10.88
2023-09-28T12:42:47.290Z,9.88
2023-09-28T12:47:49.857Z,8.05
2023-09-28T12:52:53.061Z,10.68
2023-09-28T12:57:57.149Z,8.20
2023-09-28T13:02:59.202Z,5.85
2023-09-28T13:08:05.770Z,9.82
2023-09-28T13:13:08.169Z,7.43
2023-09-28T13:18:15.612Z,6.97
2023-09-28T13:23:23.367Z,9.30
2023-09-28T13:28:25.729Z,15.65
2023-09-28T13:33:34.822Z,14.13
2023-09-28T13:38:40.039Z,10.68
2023-09-28T13:43:44.330Z,8.60
2023-09-28T13:48:46.389Z,12.38
2023-09-28T13:53:48.963Z,10.07
2023-09-28T13:58:51.616Z,11.75
2023-09-28T14:03:59.002Z,15.68
2023-09-28T14:09:01.592Z,15.07
2023-09-28T14:14:07.202Z,8.35
2023-09-28T14:19:10.213Z,9.38
2023-09-28T14:24:12.906Z,12.25
2023-09-28T14:29:14.947Z,9.65
2023-09-28T14:34:16.890Z,13.95
2023-09-28T14:39:18.970Z,8.15
2023-09-28T14:44:20.857Z,15.60
2023-09-28T14:49:22.864Z,12.30
2023-09-28T14:54:26.118Z,7.32
2023-09-28T14:59:28.216Z,11.68
2023-09-28T15:04:30.188Z,7.88
2023-09-28T15:09:34.264Z,14.23
2023-09-28T15:14:41.613Z,9.30
2023-09-28T15:19:45.367Z,8.75
2023-09-28T15:24:52.205Z,7.13
2023-09-28T15:29:55.453Z,8.83
2023-09-28T15:34:57.496Z,7.93
2023-09-28T15:40:00.091Z,14.60
2023-09-28T15:45:09.789Z,12.23
2023-09-28T15:50:13.195Z,15.27
2023-09-28T15:55:17.159Z,9.85
2023-09-28T16:00:41.120Z,12.02
2023-09-28T16:05:45.483Z,10.75
2023-09-28T16:10:52.990Z,11.55
2023-09-28T16:15:56.599Z,11.93
2023-09-28T16:21:00.763Z,13.85
2023-09-28T16:26:06.952Z,19.75
2023-09-28T16:31:08.889Z,15.38
2023-09-28T16:36:12.286Z,11.25
2023-09-28T16:41:15.371Z,16.42
2023-09-28T16:46:20.166Z,11.50
2023-09-28T16:51:22.794Z,17.38
2023-09-28T16:56:24.695Z,10.25
2023-09-28T17:01:38.992Z,12.77
2023-09-28T17:06:44.369Z,8.63
2023-09-28T17:11:52.934Z,15.15
2023-09-28T17:16:57.803Z,10.88
2023-09-28T17:22:08.695Z,13.13
2023-09-28T17:27:11.550Z,9.55
2023-09-28T17:32:13.563Z,12.43
2023-09-28T17:37:18.675Z,14.48
2023-09-28T17:42:28.016Z,12.20
2023-09-28T17:47:52.362Z,11.73
2023-09-28T17:52:56.359Z,9.18
2023-09-28T17:58:10.805Z,16.60
2023-09-28T18:03:17.023Z,13.20
2023-09-28T18:08:22.687Z,11.18
2023-09-28T18:13:24.564Z,15.68
2023-09-28T18:18:42.188Z,9.15
2023-09-28T18:24:01.620Z,12.80
2023-09-28T18:29:10.010Z,10.57
2023-09-28T18:34:12.678Z,12.57
2023-09-28T18:39:17.185Z,9.98
2023-09-28T18:44:23.331Z,15.35
2023-09-28T18:49:48.145Z,13.95
2023-09-28T18:55:23.075Z,9.48
2023-09-28T19:00:27.152Z,10.00
2023-09-28T19:05:29.133Z,11.55
2023-09-28T19:10:36.168Z,11.60
2023-09-28T19:15:38.551Z,10.25
2023-09-28T19:20:41.547Z,3.45
2023-09-28T19:25:45.628Z,6.75
2023-09-28T19:30:47.411Z,4.10
2023-09-28T19:35:58.782Z,3.40
2023-09-28T19:41:03.818Z,14.20
2023-09-28T19:46:08.870Z,5.72
2023-09-28T19:51:15.687Z,8.23
2023-09-28T19:56:28.993Z,4.65
2023-09-28T20:01:31.989Z,9.27
2023-09-28T20:06:40.373Z,19.77
2023-09-28T20:11:45.245Z,14.82
2023-09-28T20:16:48.282Z,14.10
2023-09-28T20:22:02.327Z,18.58
2023-09-28T20:27:19.631Z,15.20
2023-09-28T20:32:32.876Z,17.83
2023-09-28T20:37:35.877Z,19.38
2023-09-28T20:42:39.291Z,17.70
2023-09-28T20:47:41.533Z,18.05
2023-09-28T20:52:43.932Z,14.25
2023-09-28T20:57:46.124Z,13.40
2023-09-28T21:02:48.181Z,13.18
2023-09-28T21:07:52.100Z,15.70
2023-09-28T21:12:54.155Z,18.52
2023-09-28T21:17:56.703Z,14.05
2023-09-28T21:22:58.583Z,18.92
2023-09-28T21:28:00.667Z,18.20
2023-09-28T21:33:03.098Z,17.42
2023-09-28T21:38:05.000Z,23.50
2023-09-28T21:43:07.247Z,32.40
2023-09-28T21:48:09.331Z,23.38
2023-09-28T21:53:11.240Z,19.80
2023-09-28T21:58:19.089Z,22.65
2023-09-28T22:03:23.440Z,28.40
2023-09-28T22:08:28.201Z,27.20
2023-09-28T22:13:30.387Z,32.95
2023-09-28T22:18:32.331Z,31.30
2023-09-28T22:23:36.237Z,28.15
2023-09-28T22:28:38.168Z,35.30
2023-09-28T22:33:40.490Z,37.03
2023-09-28T22:38:44.785Z,36.42
2023-09-28T22:43:48.818Z,40.22
2023-09-28T22:48:58.180Z,34.78
2023-09-28T22:54:00.175Z,29.00
2023-09-28T22:59:02.616Z,19.30
2023-09-28T23:04:05.136Z,29.00
2023-09-28T23:09:07.003Z,25.27
2023-09-28T23:14:08.914Z,16.80
2023-09-28T23:19:10.889Z,20.15
2023-09-28T23:24:14.793Z,21.05
2023-09-28T23:29:19.987Z,12.82
2023-09-28T23:34:24.475Z,18.17
2023-09-28T23:39:27.670Z,12.95
2023-09-28T23:44:30.202Z,9.23
2023-09-28T23:49:33.308Z,10.68
2023-09-28T23:54:35.129Z,9.25
2023-09-28T23:59:37.250Z,9.32
